sensor_id;sensor_type;location;lat;lon;timestamp;P1;durP1;ratioP1;P2;durP2;ratioP2
22417;SDS011;11376;50.932;4.442;2023-04-24T00:00:24;15.70;;;6.63;;
22417;SDS011;11376;50.932;4.442;2023-04-24T00:02:49;17.27;;;8.27;;
22417;SDS011;11376;50.932;4.442;2023-04-24T00:05:15;16.83;;;8.67;;
22417;SDS011;11376;50.932;4.442;2023-04-24T00:07:42;22.57;;;10.60;;
22417;SDS011;11376;50.932;4.442;2023-04-24T00:10:08;20.30;;;9.37;;
22417;SDS011;11376;50.932;4.442;2023-04-24T00:12:35;25.93;;;9.87;;
22417;SDS011;11376;50.932;4.442;2023-04-24T00:15:00;23.47;;;9.27;;
22417;SDS011;11376;50.932;4.442;2023-04-24T00:17:27;21.17;;;9.43;;
22417;SDS011;11376;50.932;4.442;2023-04-24T00:19:52;21.67;;;10.97;;
22417;SDS011;11376;50.932;4.442;2023-04-24T00:22:23;17.10;;;9.17;;
22417;SDS011;11376;50.932;4.442;2023-04-24T00:24:50;15.53;;;7.57;;
22417;SDS011;11376;50.932;4.442;2023-04-24T00:27:15;18.17;;;8.03;;
22417;SDS011;11376;50.932;4.442;2023-04-24T00:29:41;18.80;;;7.93;;
22417;SDS011;11376;50.932;4.442;2023-04-24T00:32:07;18.73;;;10.23;;
22417;SDS011;11376;50.932;4.442;2023-04-24T00:34:32;19.10;;;9.87;;
22417;SDS011;11376;50.932;4.442;2023-04-24T00:36:58;18.87;;;8.90;;
22417;SDS011;11376;50.932;4.442;2023-04-24T00:39:24;17.57;;;7.97;;
22417;SDS011;11376;50.932;4.442;2023-04-24T00:41:49;15.47;;;6.33;;
22417;SDS011;11376;50.932;4.442;2023-04-24T00:44:16;16.10;;;6.83;;
22417;SDS011;11376;50.932;4.442;2023-04-24T00:46:42;17.50;;;8.13;;
22417;SDS011;11376;50.932;4.442;2023-04-24T00:49:08;16.60;;;8.47;;
22417;SDS011;11376;50.932;4.442;2023-04-24T00:51:33;15.43;;;7.90;;
22417;SDS011;11376;50.932;4.442;2023-04-24T00:53:59;20.17;;;8.00;;
22417;SDS011;11376;50.932;4.442;2023-04-24T00:56:26;19.87;;;9.53;;
22417;SDS011;11376;50.932;4.442;2023-04-24T00:58:52;19.47;;;9.47;;
22417;SDS011;11376;50.932;4.442;2023-04-24T01:01:21;18.73;;;6.90;;
22417;SDS011;11376;50.932;4.442;2023-04-24T01:03:49;22.27;;;8.53;;
22417;SDS011;11376;50.932;4.442;2023-04-24T01:06:16;25.30;;;9.67;;
22417;SDS011;11376;50.932;4.442;2023-04-24T01:08:43;20.57;;;9.57;;
22417;SDS011;11376;50.932;4.442;2023-04-24T01:11:10;22.93;;;10.90;;
22417;SDS011;11376;50.932;4.442;2023-04-24T01:13:36;21.87;;;9.67;;
22417;SDS011;11376;50.932;4.442;2023-04-24T01:16:02;26.20;;;8.67;;
22417;SDS011;11376;50.932;4.442;2023-04-24T01:18:28;17.43;;;9.80;;
22417;SDS011;11376;50.932;4.442;2023-04-24T01:20:57;16.50;;;8.07;;
22417;SDS011;11376;50.932;4.442;2023-04-24T01:23:25;22.33;;;10.97;;
22417;SDS011;11376;50.932;4.442;2023-04-24T01:25:51;22.17;;;9.70;;
22417;SDS011;11376;50.932;4.442;2023-04-24T01:28:17;20.57;;;8.80;;
22417;SDS011;11376;50.932;4.442;2023-04-24T01:30:43;18.50;;;10.03;;
22417;SDS011;11376;50.932;4.442;2023-04-24T01:33:09;22.23;;;10.03;;
22417;SDS011;11376;50.932;4.442;2023-04-24T01:35:35;17.40;;;8.97;;
22417;SDS011;11376;50.932;4.442;2023-04-24T01:38:02;20.73;;;7.50;;
22417;SDS011;11376;50.932;4.442;2023-04-24T01:40:28;20.90;;;9.80;;
22417;SDS011;11376;50.932;4.442;2023-04-24T01:42:53;18.63;;;7.07;;
22417;SDS011;11376;50.932;4.442;2023-04-24T01:45:20;20.93;;;6.47;;
22417;SDS011;11376;50.932;4.442;2023-04-24T01:47:45;14.70;;;6.50;;
22417;SDS011;11376;50.932;4.442;2023-04-24T01:50:12;23.03;;;9.53;;
22417;SDS011;11376;50.932;4.442;2023-04-24T01:52:38;15.10;;;7.53;;
22417;SDS011;11376;50.932;4.442;2023-04-24T01:55:04;17.70;;;9.23;;
22417;SDS011;11376;50.932;4.442;2023-04-24T01:57:30;20.20;;;10.07;;
22417;SDS011;11376;50.932;4.442;2023-04-24T01:59:56;22.90;;;10.00;;
22417;SDS011;11376;50.932;4.442;2023-04-24T02:02:22;14.27;;;8.37;;
22417;SDS011;11376;50.932;4.442;2023-04-24T02:04:55;16.60;;;6.93;;
22417;SDS011;11376;50.932;4.442;2023-04-24T02:07:22;10.33;;;5.93;;
22417;SDS011;11376;50.932;4.442;2023-04-24T02:09:47;17.50;;;5.83;;
22417;SDS011;11376;50.932;4.442;2023-04-24T02:12:13;13.23;;;5.97;;
22417;SDS011;11376;50.932;4.442;2023-04-24T02:14:40;13.23;;;6.30;;
22417;SDS011;11376;50.932;4.442;2023-04-24T02:17:07;17.83;;;9.20;;
22417;SDS011;11376;50.932;4.442;2023-04-24T02:19:33;20.37;;;9.00;;
22417;SDS011;11376;50.932;4.442;2023-04-24T02:21:58;16.03;;;8.67;;
22417;SDS011;11376;50.932;4.442;2023-04-24T02:24:24;20.07;;;10.07;;
22417;SDS011;11376;50.932;4.442;2023-04-24T02:26:49;21.10;;;9.80;;
22417;SDS011;11376;50.932;4.442;2023-04-24T02:29:15;17.63;;;8.50;;
22417;SDS011;11376;50.932;4.442;2023-04-24T02:31:41;21.27;;;9.67;;
22417;SDS011;11376;50.932;4.442;2023-04-24T02:34:06;19.73;;;10.40;;
22417;SDS011;11376;50.932;4.442;2023-04-24T02:36:33;20.97;;;9.10;;
22417;SDS011;11376;50.932;4.442;2023-04-24T02:38:58;19.50;;;9.63;;
22417;SDS011;11376;50.932;4.442;2023-04-24T02:41:24;22.67;;;9.67;;
22417;SDS011;11376;50.932;4.442;2023-04-24T02:43:50;27.00;;;8.83;;
22417;SDS011;11376;50.932;4.442;2023-04-24T02:46:15;17.87;;;7.73;;
22417;SDS011;11376;50.932;4.442;2023-04-24T02:48:41;20.37;;;9.40;;
22417;SDS011;11376;50.932;4.442;2023-04-24T02:51:07;21.40;;;11.10;;
22417;SDS011;11376;50.932;4.442;2023-04-24T02:53:32;16.30;;;8.37;;
22417;SDS011;11376;50.932;4.442;2023-04-24T02:55:58;17.53;;;6.43;;
22417;SDS011;11376;50.932;4.442;2023-04-24T02:58:24;23.73;;;9.13;;
22417;SDS011;11376;50.932;4.442;2023-04-24T03:00:53;22.27;;;11.40;;
22417;SDS011;11376;50.932;4.442;2023-04-24T03:03:20;22.20;;;9.80;;
22417;SDS011;11376;50.932;4.442;2023-04-24T03:05:46;14.97;;;8.50;;
22417;SDS011;11376;50.932;4.442;2023-04-24T03:08:12;22.07;;;9.20;;
22417;SDS011;11376;50.932;4.442;2023-04-24T03:10:37;22.10;;;10.77;;
22417;SDS011;11376;50.932;4.442;2023-04-24T03:13:03;20.60;;;9.40;;
22417;SDS011;11376;50.932;4.442;2023-04-24T03:15:28;20.73;;;11.43;;
22417;SDS011;11376;50.932;4.442;2023-04-24T03:17:54;21.90;;;10.40;;
22417;SDS011;11376;50.932;4.442;2023-04-24T03:20:20;17.13;;;8.77;;
22417;SDS011;11376;50.932;4.442;2023-04-24T03:22:47;22.17;;;11.27;;
22417;SDS011;11376;50.932;4.442;2023-04-24T03:25:12;16.80;;;6.97;;
22417;SDS011;11376;50.932;4.442;2023-04-24T03:27:38;19.23;;;9.93;;
22417;SDS011;11376;50.932;4.442;2023-04-24T03:30:05;17.17;;;8.57;;
22417;SDS011;11376;50.932;4.442;2023-04-24T03:32:34;23.03;;;11.80;;
22417;SDS011;11376;50.932;4.442;2023-04-24T03:34:59;24.47;;;12.17;;
22417;SDS011;11376;50.932;4.442;2023-04-24T03:37:25;23.60;;;13.43;;
22417;SDS011;11376;50.932;4.442;2023-04-24T03:39:51;19.53;;;9.43;;
22417;SDS011;11376;50.932;4.442;2023-04-24T03:42:17;18.03;;;8.97;;
22417;SDS011;11376;50.932;4.442;2023-04-24T03:44:43;15.67;;;7.97;;
22417;SDS011;11376;50.932;4.442;2023-04-24T03:47:08;13.77;;;6.40;;
22417;SDS011;11376;50.932;4.442;2023-04-24T03:49:34;16.50;;;8.40;;
22417;SDS011;11376;50.932;4.442;2023-04-24T03:52:00;10.93;;;6.00;;
22417;SDS011;11376;50.932;4.442;2023-04-24T03:54:25;16.07;;;7.83;;
22417;SDS011;11376;50.932;4.442;2023-04-24T03:56:51;16.03;;;8.60;;
22417;SDS011;11376;50.932;4.442;2023-04-24T03:59:17;15.13;;;7.87;;
22417;SDS011;11376;50.932;4.442;2023-04-24T04:01:43;13.73;;;8.10;;
22417;SDS011;11376;50.932;4.442;2023-04-24T04:04:08;10.33;;;6.23;;
22417;SDS011;11376;50.932;4.442;2023-04-24T04:06:34;12.73;;;7.30;;
22417;SDS011;11376;50.932;4.442;2023-04-24T04:09:01;10.30;;;5.40;;
22417;SDS011;11376;50.932;4.442;2023-04-24T04:11:28;11.13;;;6.57;;
22417;SDS011;11376;50.932;4.442;2023-04-24T04:13:53;10.37;;;5.93;;
22417;SDS011;11376;50.932;4.442;2023-04-24T04:16:19;14.33;;;6.80;;
22417;SDS011;11376;50.932;4.442;2023-04-24T04:18:45;11.87;;;5.73;;
22417;SDS011;11376;50.932;4.442;2023-04-24T04:21:11;13.47;;;7.13;;
22417;SDS011;11376;50.932;4.442;2023-04-24T04:23:36;10.80;;;4.20;;
22417;SDS011;11376;50.932;4.442;2023-04-24T04:26:02;10.73;;;6.27;;
22417;SDS011;11376;50.932;4.442;2023-04-24T04:28:29;12.40;;;6.30;;
22417;SDS011;11376;50.932;4.442;2023-04-24T04:30:56;8.53;;;5.97;;
22417;SDS011;11376;50.932;4.442;2023-04-24T04:33:22;11.50;;;5.70;;
22417;SDS011;11376;50.932;4.442;2023-04-24T04:35:49;14.00;;;7.70;;
22417;SDS011;11376;50.932;4.442;2023-04-24T04:38:17;11.97;;;5.83;;
22417;SDS011;11376;50.932;4.442;2023-04-24T04:40:43;15.10;;;8.43;;
22417;SDS011;11376;50.932;4.442;2023-04-24T04:43:09;16.47;;;7.23;;
22417;SDS011;11376;50.932;4.442;2023-04-24T04:45:41;23.00;;;10.37;;
22417;SDS011;11376;50.932;4.442;2023-04-24T04:48:08;19.07;;;10.30;;
22417;SDS011;11376;50.932;4.442;2023-04-24T04:50:37;19.33;;;10.40;;
22417;SDS011;11376;50.932;4.442;2023-04-24T04:53:02;22.43;;;12.97;;
22417;SDS011;11376;50.932;4.442;2023-04-24T04:55:28;19.83;;;11.27;;
22417;SDS011;11376;50.932;4.442;2023-04-24T04:57:54;25.37;;;12.90;;
22417;SDS011;11376;50.932;4.442;2023-04-24T05:00:21;27.73;;;15.57;;
22417;SDS011;11376;50.932;4.442;2023-04-24T05:02:46;25.90;;;12.70;;
22417;SDS011;11376;50.932;4.442;2023-04-24T05:05:12;26.10;;;12.27;;
22417;SDS011;11376;50.932;4.442;2023-04-24T05:07:38;22.93;;;11.67;;
22417;SDS011;11376;50.932;4.442;2023-04-24T05:10:03;23.47;;;10.50;;
22417;SDS011;11376;50.932;4.442;2023-04-24T05:12:29;22.93;;;11.37;;
22417;SDS011;11376;50.932;4.442;2023-04-24T05:14:55;28.20;;;14.40;;
22417;SDS011;11376;50.932;4.442;2023-04-24T05:17:21;23.10;;;12.40;;
22417;SDS011;11376;50.932;4.442;2023-04-24T05:19:46;21.80;;;10.13;;
22417;SDS011;11376;50.932;4.442;2023-04-24T05:22:13;26.30;;;12.00;;
22417;SDS011;11376;50.932;4.442;2023-04-24T05:24:38;23.23;;;10.90;;
22417;SDS011;11376;50.932;4.442;2023-04-24T05:27:04;22.80;;;11.73;;
22417;SDS011;11376;50.932;4.442;2023-04-24T05:29:30;25.00;;;10.83;;
22417;SDS011;11376;50.932;4.442;2023-04-24T05:31:57;22.33;;;10.57;;
22417;SDS011;11376;50.932;4.442;2023-04-24T05:34:23;21.50;;;11.40;;
22417;SDS011;11376;50.932;4.442;2023-04-24T05:36:49;21.57;;;9.87;;
22417;SDS011;11376;50.932;4.442;2023-04-24T05:39:15;24.97;;;12.33;;
22417;SDS011;11376;50.932;4.442;2023-04-24T05:41:41;25.70;;;12.57;;
22417;SDS011;11376;50.932;4.442;2023-04-24T05:44:07;27.43;;;12.17;;
22417;SDS011;11376;50.932;4.442;2023-04-24T05:46:32;21.90;;;9.57;;
22417;SDS011;11376;50.932;4.442;2023-04-24T05:48:58;26.77;;;12.63;;
22417;SDS011;11376;50.932;4.442;2023-04-24T05:51:23;24.43;;;12.57;;
22417;SDS011;11376;50.932;4.442;2023-04-24T05:53:49;23.10;;;10.60;;
22417;SDS011;11376;50.932;4.442;2023-04-24T05:56:15;27.03;;;11.67;;
22417;SDS011;11376;50.932;4.442;2023-04-24T05:58:41;22.00;;;12.93;;
22417;SDS011;11376;50.932;4.442;2023-04-24T06:01:07;25.33;;;11.83;;
22417;SDS011;11376;50.932;4.442;2023-04-24T06:03:32;24.03;;;12.50;;
22417;SDS011;11376;50.932;4.442;2023-04-24T06:05:58;27.70;;;12.17;;
22417;SDS011;11376;50.932;4.442;2023-04-24T06:08:24;11.83;;;6.00;;
22417;SDS011;11376;50.932;4.442;2023-04-24T06:10:49;22.57;;;10.67;;
22417;SDS011;11376;50.932;4.442;2023-04-24T06:13:15;27.60;;;13.67;;
22417;SDS011;11376;50.932;4.442;2023-04-24T06:15:41;23.97;;;12.40;;
22417;SDS011;11376;50.932;4.442;2023-04-24T06:18:07;24.40;;;11.10;;
22417;SDS011;11376;50.932;4.442;2023-04-24T06:20:35;26.93;;;11.60;;
22417;SDS011;11376;50.932;4.442;2023-04-24T06:23:00;23.53;;;11.93;;
22417;SDS011;11376;50.932;4.442;2023-04-24T06:25:26;23.77;;;13.13;;
22417;SDS011;11376;50.932;4.442;2023-04-24T06:27:52;29.90;;;11.47;;
22417;SDS011;11376;50.932;4.442;2023-04-24T06:30:18;22.67;;;10.20;;
22417;SDS011;11376;50.932;4.442;2023-04-24T06:32:44;22.83;;;12.13;;
22417;SDS011;11376;50.932;4.442;2023-04-24T06:35:10;28.10;;;12.10;;
22417;SDS011;11376;50.932;4.442;2023-04-24T06:37:37;23.50;;;11.90;;
22417;SDS011;11376;50.932;4.442;2023-04-24T06:40:06;26.43;;;12.57;;
22417;SDS011;11376;50.932;4.442;2023-04-24T06:42:33;20.53;;;9.43;;
22417;SDS011;11376;50.932;4.442;2023-04-24T06:45:00;17.57;;;9.90;;
22417;SDS011;11376;50.932;4.442;2023-04-24T06:47:26;33.00;;;14.50;;
22417;SDS011;11376;50.932;4.442;2023-04-24T06:49:51;25.63;;;12.83;;
22417;SDS011;11376;50.932;4.442;2023-04-24T06:52:17;22.43;;;12.20;;
22417;SDS011;11376;50.932;4.442;2023-04-24T06:54:44;24.33;;;12.33;;
22417;SDS011;11376;50.932;4.442;2023-04-24T06:57:10;28.47;;;13.30;;
22417;SDS011;11376;50.932;4.442;2023-04-24T06:59:35;33.13;;;14.23;;
22417;SDS011;11376;50.932;4.442;2023-04-24T07:02:01;26.57;;;10.97;;
22417;SDS011;11376;50.932;4.442;2023-04-24T07:04:27;34.97;;;15.67;;
22417;SDS011;11376;50.932;4.442;2023-04-24T07:06:54;31.60;;;15.07;;
22417;SDS011;11376;50.932;4.442;2023-04-24T07:09:20;33.23;;;15.33;;
22417;SDS011;11376;50.932;4.442;2023-04-24T07:11:47;27.10;;;12.90;;
22417;SDS011;11376;50.932;4.442;2023-04-24T07:14:13;30.27;;;12.60;;
22417;SDS011;11376;50.932;4.442;2023-04-24T07:16:39;37.43;;;8.13;;
22417;SDS011;11376;50.932;4.442;2023-04-24T07:19:04;24.97;;;12.03;;
22417;SDS011;11376;50.932;4.442;2023-04-24T07:21:30;28.97;;;13.67;;
22417;SDS011;11376;50.932;4.442;2023-04-24T07:23:56;30.57;;;16.50;;
22417;SDS011;11376;50.932;4.442;2023-04-24T07:26:23;33.97;;;17.07;;
22417;SDS011;11376;50.932;4.442;2023-04-24T07:28:48;28.13;;;13.13;;
22417;SDS011;11376;50.932;4.442;2023-04-24T07:31:14;35.73;;;15.53;;
22417;SDS011;11376;50.932;4.442;2023-04-24T07:33:40;34.80;;;16.57;;
22417;SDS011;11376;50.932;4.442;2023-04-24T07:36:05;40.97;;;15.83;;
22417;SDS011;11376;50.932;4.442;2023-04-24T07:38:31;33.60;;;15.17;;
22417;SDS011;11376;50.932;4.442;2023-04-24T07:40:57;34.00;;;15.77;;
22417;SDS011;11376;50.932;4.442;2023-04-24T07:43:23;29.60;;;12.97;;
22417;SDS011;11376;50.932;4.442;2023-04-24T07:45:49;27.43;;;12.77;;
22417;SDS011;11376;50.932;4.442;2023-04-24T07:48:15;31.40;;;12.60;;
22417;SDS011;11376;50.932;4.442;2023-04-24T07:50:42;24.87;;;11.13;;
22417;SDS011;11376;50.932;4.442;2023-04-24T07:53:08;25.47;;;9.50;;
22417;SDS011;11376;50.932;4.442;2023-04-24T07:55:34;25.90;;;12.03;;
22417;SDS011;11376;50.932;4.442;2023-04-24T07:58:00;26.60;;;11.30;;
22417;SDS011;11376;50.932;4.442;2023-04-24T08:00:26;24.77;;;10.80;;
22417;SDS011;11376;50.932;4.442;2023-04-24T08:02:51;25.63;;;11.37;;
22417;SDS011;11376;50.932;4.442;2023-04-24T08:05:17;24.77;;;9.73;;
22417;SDS011;11376;50.932;4.442;2023-04-24T08:07:43;30.70;;;11.40;;
22417;SDS011;11376;50.932;4.442;2023-04-24T08:10:11;23.80;;;10.17;;
22417;SDS011;11376;50.932;4.442;2023-04-24T08:12:37;27.07;;;10.90;;
22417;SDS011;11376;50.932;4.442;2023-04-24T08:15:03;25.83;;;10.40;;
22417;SDS011;11376;50.932;4.442;2023-04-24T08:17:29;24.00;;;8.90;;
22417;SDS011;11376;50.932;4.442;2023-04-24T08:19:55;25.43;;;10.23;;
22417;SDS011;11376;50.932;4.442;2023-04-24T08:22:26;21.27;;;9.63;;
22417;SDS011;11376;50.932;4.442;2023-04-24T08:24:55;22.97;;;9.40;;
22417;SDS011;11376;50.932;4.442;2023-04-24T08:27:21;25.03;;;9.57;;
22417;SDS011;11376;50.932;4.442;2023-04-24T08:29:48;15.23;;;7.30;;
22417;SDS011;11376;50.932;4.442;2023-04-24T08:32:14;24.13;;;7.73;;
22417;SDS011;11376;50.932;4.442;2023-04-24T08:34:40;19.53;;;7.30;;
22417;SDS011;11376;50.932;4.442;2023-04-24T08:37:05;23.20;;;8.07;;
22417;SDS011;11376;50.932;4.442;2023-04-24T08:39:31;19.67;;;6.40;;
22417;SDS011;11376;50.932;4.442;2023-04-24T08:41:57;14.97;;;5.53;;
22417;SDS011;11376;50.932;4.442;2023-04-24T08:44:30;17.80;;;5.97;;
22417;SDS011;11376;50.932;4.442;2023-04-24T08:47:01;16.23;;;5.33;;
22417;SDS011;11376;50.932;4.442;2023-04-24T08:49:28;17.83;;;5.07;;
22417;SDS011;11376;50.932;4.442;2023-04-24T08:51:54;17.83;;;5.70;;
22417;SDS011;11376;50.932;4.442;2023-04-24T08:54:20;13.73;;;4.43;;
22417;SDS011;11376;50.932;4.442;2023-04-24T08:56:47;12.90;;;4.20;;
22417;SDS011;11376;50.932;4.442;2023-04-24T08:59:13;15.17;;;5.40;;
22417;SDS011;11376;50.932;4.442;2023-04-24T09:01:40;16.27;;;5.37;;
22417;SDS011;11376;50.932;4.442;2023-04-24T09:04:08;21.77;;;5.60;;
22417;SDS011;11376;50.932;4.442;2023-04-24T09:06:39;10.87;;;4.17;;
22417;SDS011;11376;50.932;4.442;2023-04-24T09:09:05;13.40;;;4.67;;
22417;SDS011;11376;50.932;4.442;2023-04-24T09:11:31;12.20;;;4.60;;
22417;SDS011;11376;50.932;4.442;2023-04-24T09:14:00;13.40;;;4.43;;
22417;SDS011;11376;50.932;4.442;2023-04-24T09:16:26;13.97;;;4.77;;
22417;SDS011;11376;50.932;4.442;2023-04-24T09:18:52;11.83;;;3.97;;
22417;SDS011;11376;50.932;4.442;2023-04-24T09:21:20;11.87;;;4.17;;
22417;SDS011;11376;50.932;4.442;2023-04-24T09:23:46;13.07;;;4.93;;
22417;SDS011;11376;50.932;4.442;2023-04-24T09:26:23;13.20;;;4.50;;
22417;SDS011;11376;50.932;4.442;2023-04-24T09:28:49;16.03;;;4.87;;
22417;SDS011;11376;50.932;4.442;2023-04-24T09:31:15;15.07;;;4.03;;
22417;SDS011;11376;50.932;4.442;2023-04-24T09:33:56;11.17;;;3.87;;
22417;SDS011;11376;50.932;4.442;2023-04-24T09:39:01;11.10;;;3.47;;
22417;SDS011;11376;50.932;4.442;2023-04-24T09:41:29;13.53;;;3.70;;
22417;SDS011;11376;50.932;4.442;2023-04-24T09:43:56;11.00;;;3.20;;
22417;SDS011;11376;50.932;4.442;2023-04-24T09:46:30;7.77;;;2.70;;
22417;SDS011;11376;50.932;4.442;2023-04-24T09:49:05;11.20;;;2.60;;
22417;SDS011;11376;50.932;4.442;2023-04-24T09:51:38;15.23;;;3.47;;
22417;SDS011;11376;50.932;4.442;2023-04-24T09:54:05;10.20;;;3.13;;
22417;SDS011;11376;50.932;4.442;2023-04-24T09:56:47;9.03;;;2.63;;
22417;SDS011;11376;50.932;4.442;2023-04-24T09:59:19;10.90;;;2.77;;
22417;SDS011;11376;50.932;4.442;2023-04-24T10:01:44;11.03;;;4.03;;
22417;SDS011;11376;50.932;4.442;2023-04-24T10:06:43;12.67;;;2.87;;
22417;SDS011;11376;50.932;4.442;2023-04-24T10:09:09;8.77;;;3.40;;
22417;SDS011;11376;50.932;4.442;2023-04-24T10:11:37;10.40;;;2.53;;
22417;SDS011;11376;50.932;4.442;2023-04-24T10:14:05;11.37;;;2.93;;
22417;SDS011;11376;50.932;4.442;2023-04-24T10:16:31;8.30;;;3.10;;
22417;SDS011;11376;50.932;4.442;2023-04-24T10:18:58;8.63;;;3.50;;
22417;SDS011;11376;50.932;4.442;2023-04-24T10:21:24;12.03;;;3.80;;
22417;SDS011;11376;50.932;4.442;2023-04-24T10:23:51;9.97;;;3.53;;
22417;SDS011;11376;50.932;4.442;2023-04-24T10:26:17;7.43;;;3.03;;
22417;SDS011;11376;50.932;4.442;2023-04-24T10:28:47;9.80;;;3.13;;
22417;SDS011;11376;50.932;4.442;2023-04-24T10:31:13;11.37;;;2.97;;
22417;SDS011;11376;50.932;4.442;2023-04-24T10:33:40;11.40;;;3.77;;
22417;SDS011;11376;50.932;4.442;2023-04-24T10:36:08;10.97;;;3.13;;
22417;SDS011;11376;50.932;4.442;2023-04-24T10:38:35;12.10;;;3.80;;
22417;SDS011;11376;50.932;4.442;2023-04-24T10:41:09;11.07;;;3.57;;
22417;SDS011;11376;50.932;4.442;2023-04-24T10:43:41;10.30;;;3.90;;
22417;SDS011;11376;50.932;4.442;2023-04-24T10:46:07;9.47;;;3.23;;
22417;SDS011;11376;50.932;4.442;2023-04-24T10:48:35;12.13;;;3.37;;
22417;SDS011;11376;50.932;4.442;2023-04-24T10:51:10;9.53;;;3.20;;
22417;SDS011;11376;50.932;4.442;2023-04-24T10:53:37;12.20;;;3.20;;
22417;SDS011;11376;50.932;4.442;2023-04-24T10:56:07;10.47;;;2.87;;
22417;SDS011;11376;50.932;4.442;2023-04-24T10:58:38;8.07;;;2.90;;
22417;SDS011;11376;50.932;4.442;2023-04-24T11:01:27;8.47;;;3.23;;
22417;SDS011;11376;50.932;4.442;2023-04-24T11:03:55;11.67;;;3.83;;
22417;SDS011;11376;50.932;4.442;2023-04-24T11:06:32;10.60;;;3.50;;
22417;SDS011;11376;50.932;4.442;2023-04-24T11:09:07;9.17;;;3.40;;
22417;SDS011;11376;50.932;4.442;2023-04-24T11:11:34;12.33;;;2.90;;
22417;SDS011;11376;50.932;4.442;2023-04-24T11:14:02;10.30;;;3.13;;
22417;SDS011;11376;50.932;4.442;2023-04-24T11:19:04;6.00;;;2.45;;
22417;SDS011;11376;50.932;4.442;2023-04-24T11:24:30;8.10;;;2.92;;
22417;SDS011;11376;50.932;4.442;2023-04-24T11:27:21;6.40;;;3.13;;
22417;SDS011;11376;50.932;4.442;2023-04-24T11:29:48;9.10;;;2.83;;
22417;SDS011;11376;50.932;4.442;2023-04-24T11:34:50;9.67;;;4.13;;
22417;SDS011;11376;50.932;4.442;2023-04-24T11:37:17;9.17;;;3.80;;
22417;SDS011;11376;50.932;4.442;2023-04-24T11:39:43;12.73;;;3.40;;
22417;SDS011;11376;50.932;4.442;2023-04-24T11:42:09;9.60;;;3.37;;
22417;SDS011;11376;50.932;4.442;2023-04-24T11:44:35;14.20;;;3.70;;
22417;SDS011;11376;50.932;4.442;2023-04-24T11:47:06;7.37;;;3.30;;
22417;SDS011;11376;50.932;4.442;2023-04-24T11:49:32;6.27;;;2.70;;
22417;SDS011;11376;50.932;4.442;2023-04-24T11:52:01;9.40;;;2.60;;
22417;SDS011;11376;50.932;4.442;2023-04-24T11:54:27;9.40;;;3.00;;
22417;SDS011;11376;50.932;4.442;2023-04-24T11:56:53;8.38;;;2.47;;
22417;SDS011;11376;50.932;4.442;2023-04-24T11:59:19;8.48;;;3.42;;
22417;SDS011;11376;50.932;4.442;2023-04-24T12:01:45;10.18;;;2.97;;
22417;SDS011;11376;50.932;4.442;2023-04-24T12:04:11;7.93;;;2.87;;
22417;SDS011;11376;50.932;4.442;2023-04-24T12:06:38;10.13;;;4.20;;
22417;SDS011;11376;50.932;4.442;2023-04-24T12:09:04;9.97;;;3.40;;
22417;SDS011;11376;50.932;4.442;2023-04-24T12:11:29;8.67;;;2.67;;
22417;SDS011;11376;50.932;4.442;2023-04-24T12:13:55;10.97;;;3.13;;
22417;SDS011;11376;50.932;4.442;2023-04-24T12:16:21;8.10;;;3.23;;
22417;SDS011;11376;50.932;4.442;2023-04-24T12:18:47;9.33;;;3.20;;
22417;SDS011;11376;50.932;4.442;2023-04-24T12:23:46;7.37;;;2.80;;
22417;SDS011;11376;50.932;4.442;2023-04-24T12:26:12;6.73;;;2.43;;
22417;SDS011;11376;50.932;4.442;2023-04-24T12:28:42;9.90;;;3.80;;
22417;SDS011;11376;50.932;4.442;2023-04-24T12:31:10;10.37;;;3.63;;
22417;SDS011;11376;50.932;4.442;2023-04-24T12:33:36;9.83;;;3.43;;
22417;SDS011;11376;50.932;4.442;2023-04-24T12:36:03;10.33;;;3.30;;
22417;SDS011;11376;50.932;4.442;2023-04-24T12:38:30;6.57;;;2.80;;
22417;SDS011;11376;50.932;4.442;2023-04-24T12:41:03;9.27;;;2.80;;
22417;SDS011;11376;50.932;4.442;2023-04-24T12:43:30;7.90;;;3.73;;
22417;SDS011;11376;50.932;4.442;2023-04-24T12:45:55;10.07;;;3.60;;
22417;SDS011;11376;50.932;4.442;2023-04-24T12:48:22;9.50;;;3.60;;
22417;SDS011;11376;50.932;4.442;2023-04-24T12:50:47;10.83;;;3.20;;
22417;SDS011;11376;50.932;4.442;2023-04-24T12:53:14;9.87;;;3.20;;
22417;SDS011;11376;50.932;4.442;2023-04-24T12:55:40;11.50;;;3.40;;
22417;SDS011;11376;50.932;4.442;2023-04-24T12:58:06;7.20;;;3.10;;
22417;SDS011;11376;50.932;4.442;2023-04-24T13:00:32;9.10;;;3.03;;
22417;SDS011;11376;50.932;4.442;2023-04-24T13:02:58;5.73;;;2.60;;
22417;SDS011;11376;50.932;4.442;2023-04-24T13:05:24;6.80;;;2.45;;
22417;SDS011;11376;50.932;4.442;2023-04-24T13:07:50;6.20;;;2.30;;
22417;SDS011;11376;50.932;4.442;2023-04-24T13:10:15;6.45;;;2.22;;
22417;SDS011;11376;50.932;4.442;2023-04-24T13:12:41;5.80;;;2.00;;
22417;SDS011;11376;50.932;4.442;2023-04-24T13:15:10;5.70;;;2.10;;
22417;SDS011;11376;50.932;4.442;2023-04-24T13:17:35;6.22;;;2.08;;
22417;SDS011;11376;50.932;4.442;2023-04-24T13:20:01;8.52;;;2.22;;
22417;SDS011;11376;50.932;4.442;2023-04-24T13:22:27;5.32;;;1.58;;
22417;SDS011;11376;50.932;4.442;2023-04-24T13:24:53;8.98;;;2.03;;
22417;SDS011;11376;50.932;4.442;2023-04-24T13:27:19;10.13;;;2.50;;
22417;SDS011;11376;50.932;4.442;2023-04-24T13:29:45;7.28;;;2.35;;
22417;SDS011;11376;50.932;4.442;2023-04-24T13:32:11;5.85;;;2.20;;
22417;SDS011;11376;50.932;4.442;2023-04-24T13:34:36;12.20;;;2.78;;
22417;SDS011;11376;50.932;4.442;2023-04-24T13:37:03;8.77;;;2.40;;
22417;SDS011;11376;50.932;4.442;2023-04-24T13:39:29;12.77;;;2.63;;
22417;SDS011;11376;50.932;4.442;2023-04-24T13:41:55;6.88;;;2.30;;
22417;SDS011;11376;50.932;4.442;2023-04-24T13:44:21;5.45;;;2.00;;
22417;SDS011;11376;50.932;4.442;2023-04-24T13:46:49;7.05;;;1.98;;
22417;SDS011;11376;50.932;4.442;2023-04-24T13:49:16;6.13;;;2.03;;
22417;SDS011;11376;50.932;4.442;2023-04-24T13:51:42;9.63;;;2.00;;
22417;SDS011;11376;50.932;4.442;2023-04-24T13:54:08;9.80;;;1.93;;
22417;SDS011;11376;50.932;4.442;2023-04-24T13:56:34;9.30;;;2.43;;
22417;SDS011;11376;50.932;4.442;2023-04-24T13:59:00;7.30;;;1.97;;
22417;SDS011;11376;50.932;4.442;2023-04-24T14:01:26;6.40;;;1.77;;
22417;SDS011;11376;50.932;4.442;2023-04-24T14:03:52;7.43;;;1.93;;
22417;SDS011;11376;50.932;4.442;2023-04-24T14:06:19;7.50;;;1.50;;
22417;SDS011;11376;50.932;4.442;2023-04-24T14:08:45;5.90;;;1.83;;
22417;SDS011;11376;50.932;4.442;2023-04-24T14:11:11;3.90;;;1.50;;
22417;SDS011;11376;50.932;4.442;2023-04-24T14:13:37;4.87;;;1.53;;
22417;SDS011;11376;50.932;4.442;2023-04-24T14:16:04;7.50;;;1.40;;
22417;SDS011;11376;50.932;4.442;2023-04-24T14:18:30;4.80;;;1.70;;
22417;SDS011;11376;50.932;4.442;2023-04-24T14:20:56;5.27;;;1.70;;
22417;SDS011;11376;50.932;4.442;2023-04-24T14:23:21;6.90;;;1.70;;
22417;SDS011;11376;50.932;4.442;2023-04-24T14:25:47;7.30;;;1.70;;
22417;SDS011;11376;50.932;4.442;2023-04-24T14:28:16;6.10;;;2.10;;
22417;SDS011;11376;50.932;4.442;2023-04-24T14:30:42;4.93;;;1.43;;
22417;SDS011;11376;50.932;4.442;2023-04-24T14:33:08;7.90;;;1.50;;
22417;SDS011;11376;50.932;4.442;2023-04-24T14:35:34;7.03;;;1.50;;
22417;SDS011;11376;50.932;4.442;2023-04-24T14:38:00;5.40;;;1.33;;
22417;SDS011;11376;50.932;4.442;2023-04-24T14:40:26;3.38;;;1.40;;
22417;SDS011;11376;50.932;4.442;2023-04-24T14:42:52;6.75;;;1.50;;
22417;SDS011;11376;50.932;4.442;2023-04-24T14:45:18;8.57;;;2.57;;